createdAt,value
2018-05-27T00:01:06.570Z,21.95
2018-05-27T00:03:35.404Z,21.94
2018-05-27T00:06:04.248Z,21.87
2018-05-27T00:08:33.066Z,21.89
2018-05-27T00:11:01.911Z,21.87
2018-05-27T00:13:30.777Z,21.87
2018-05-27T00:15:59.589Z,21.88
2018-05-27T00:18:28.436Z,21.81
2018-05-27T00:20:57.254Z,21.70
2018-05-27T00:23:26.070Z,21.69
2018-05-27T00:25:54.903Z,21.65
2018-05-27T00:28:23.737Z,21.63
2018-05-27T00:30:52.569Z,21.55
2018-05-27T00:33:21.393Z,21.54
2018-05-27T00:35:50.230Z,21.52
2018-05-27T00:38:19.071Z,21.43
2018-05-27T00:40:47.922Z,21.58
2018-05-27T00:43:16.787Z,21.46
2018-05-27T00:45:45.631Z,21.41
2018-05-27T00:48:14.487Z,21.37
2018-05-27T00:50:43.313Z,21.33
2018-05-27T00:53:14.039Z,21.33
2018-05-27T00:55:42.897Z,21.30
2018-05-27T00:58:11.732Z,21.30
2018-05-27T01:00:40.551Z,21.26
2018-05-27T01:03:09.381Z,21.23
2018-05-27T01:05:38.211Z,21.22
2018-05-27T01:08:07.051Z,21.22
2018-05-27T01:10:35.877Z,21.24
2018-05-27T01:13:04.712Z,21.35
2018-05-27T01:15:33.537Z,21.17
2018-05-27T01:18:02.405Z,21.32
2018-05-27T01:20:31.268Z,21.13
2018-05-27T01:23:00.087Z,21.04
2018-05-27T01:25:28.937Z,21.05
2018-05-27T01:27:57.841Z,21.04
2018-05-27T01:30:26.584Z,20.98
2018-05-27T01:32:55.450Z,20.93
2018-05-27T01:35:24.306Z,20.81
2018-05-27T01:37:53.169Z,20.82
2018-05-27T01:40:21.991Z,20.85
2018-05-27T01:42:50.802Z,20.72
2018-05-27T01:45:19.652Z,20.72
2018-05-27T01:47:48.585Z,20.89
2018-05-27T01:50:17.420Z,20.74
2018-05-27T01:52:46.292Z,20.91
2018-05-27T01:55:19.279Z,20.72
2018-05-27T01:57:48.086Z,20.73
2018-05-27T02:00:16.929Z,20.73
2018-05-27T02:02:45.764Z,20.66
2018-05-27T02:05:14.620Z,20.80
2018-05-27T02:07:43.455Z,20.71
2018-05-27T02:10:12.314Z,20.75
2018-05-27T02:12:41.136Z,20.71
2018-05-27T02:15:09.987Z,20.66
2018-05-27T02:17:38.806Z,20.59
2018-05-27T02:20:07.653Z,20.58
2018-05-27T02:22:36.482Z,20.57
2018-05-27T02:25:05.351Z,20.54
2018-05-27T02:27:34.186Z,20.49
2018-05-27T02:30:03.028Z,20.42
2018-05-27T02:32:31.879Z,20.45
2018-05-27T02:35:00.717Z,20.45
2018-05-27T02:37:29.559Z,20.42
2018-05-27T02:39:58.422Z,20.48
2018-05-27T02:42:27.242Z,20.51
2018-05-27T02:44:56.063Z,20.48
2018-05-27T02:47:24.912Z,20.47
2018-05-27T02:49:53.731Z,20.50
2018-05-27T02:52:22.612Z,20.50
2018-05-27T02:54:51.432Z,20.44
2018-05-27T02:57:20.241Z,20.48
2018-05-27T02:59:49.129Z,20.51
2018-05-27T03:02:17.967Z,20.50
2018-05-27T03:04:46.823Z,20.50
2018-05-27T03:07:15.871Z,20.45
2018-05-27T03:09:44.730Z,20.42
2018-05-27T03:12:13.555Z,20.43
2018-05-27T03:14:42.397Z,20.47
2018-05-27T03:17:11.239Z,20.45
2018-05-27T03:19:40.095Z,20.47
2018-05-27T03:22:08.941Z,20.49
2018-05-27T03:24:37.782Z,20.49
2018-05-27T03:27:06.614Z,20.44
2018-05-27T03:29:35.462Z,20.44
2018-05-27T03:32:04.294Z,20.45
2018-05-27T03:34:33.167Z,20.41
2018-05-27T03:37:01.982Z,20.35
2018-05-27T03:39:30.823Z,20.33
2018-05-27T03:41:59.640Z,20.28
2018-05-27T03:44:28.467Z,20.32
2018-05-27T03:46:57.307Z,20.30
2018-05-27T03:49:26.135Z,20.22
2018-05-27T03:51:55.001Z,20.23
2018-05-27T03:54:23.842Z,20.24
2018-05-27T03:56:52.691Z,20.22
2018-05-27T03:59:21.534Z,20.26
2018-05-27T04:01:50.352Z,20.23
2018-05-27T04:05:14.957Z,20.22
2018-05-27T04:08:40.024Z,20.24
2018-05-27T04:11:08.862Z,20.19
2018-05-27T04:13:37.721Z,20.31
2018-05-27T04:16:06.554Z,20.20
2018-05-27T04:18:36.039Z,20.22
2018-05-27T04:21:04.919Z,20.17
2018-05-27T04:23:33.731Z,20.13
2018-05-27T04:26:02.578Z,20.07
2018-05-27T04:28:31.522Z,20.10
2018-05-27T04:31:00.284Z,20.33
2018-05-27T04:33:29.122Z,20.26
2018-05-27T04:35:57.954Z,20.27
2018-05-27T04:38:26.798Z,20.30
2018-05-27T04:40:55.746Z,20.25
2018-05-27T04:43:24.588Z,20.25
2018-05-27T04:45:53.422Z,20.30
2018-05-27T04:48:22.299Z,20.37
2018-05-27T04:50:51.176Z,20.37
2018-05-27T04:53:20.009Z,20.42
2018-05-27T04:55:48.876Z,20.36
2018-05-27T04:58:17.683Z,20.41
2018-05-27T05:00:46.530Z,20.47
2018-05-27T05:03:15.367Z,20.48
2018-05-27T05:05:44.232Z,20.65
2018-05-27T05:08:13.072Z,20.57
2018-05-27T05:10:41.915Z,20.57
2018-05-27T05:13:10.749Z,20.58
2018-05-27T05:15:39.584Z,20.67
2018-05-27T05:18:08.427Z,20.69
2018-05-27T05:20:37.291Z,20.77
2018-05-27T05:23:06.154Z,20.81
2018-05-27T05:25:35.023Z,20.85
2018-05-27T05:28:03.864Z,20.88
2018-05-27T05:30:32.705Z,20.88
2018-05-27T05:33:01.537Z,20.92
2018-05-27T05:35:30.374Z,20.96
2018-05-27T05:37:59.243Z,20.92
2018-05-27T05:40:28.075Z,20.87
2018-05-27T05:42:56.889Z,20.88
2018-05-27T05:45:25.732Z,20.88
2018-05-27T05:47:54.572Z,20.88
2018-05-27T05:50:23.433Z,20.95
2018-05-27T05:52:52.252Z,20.98
2018-05-27T05:55:21.093Z,21.13
2018-05-27T05:57:49.931Z,21.05
2018-05-27T06:00:18.852Z,21.15
2018-05-27T06:02:47.840Z,21.09
2018-05-27T06:05:16.624Z,21.08
2018-05-27T06:07:45.484Z,21.47
2018-05-27T06:10:14.336Z,21.35
2018-05-27T06:12:43.148Z,21.38
2018-05-27T06:15:11.997Z,21.44
2018-05-27T06:17:40.815Z,21.44
2018-05-27T06:20:09.774Z,21.49
2018-05-27T06:22:38.612Z,21.80
2018-05-27T06:25:07.438Z,23.42
2018-05-27T06:27:36.275Z,23.49
2018-05-27T06:30:05.128Z,24.86
2018-05-27T06:32:33.982Z,25.27
2018-05-27T06:35:02.808Z,26.04
2018-05-27T06:37:31.640Z,27.32
2018-05-27T06:40:00.451Z,27.88
2018-05-27T06:42:29.306Z,29.15
2018-05-27T06:44:58.120Z,30.17
2018-05-27T06:47:26.954Z,30.28
2018-05-27T06:49:55.775Z,30.23
2018-05-27T06:52:24.631Z,30.80
2018-05-27T06:54:53.455Z,29.80
2018-05-27T06:57:22.278Z,29.03
2018-05-27T06:59:51.152Z,28.65
2018-05-27T07:02:20.004Z,28.25
2018-05-27T07:04:48.978Z,27.89
2018-05-27T07:07:17.652Z,27.27
2018-05-27T07:09:46.518Z,26.81
2018-05-27T07:12:15.345Z,26.47
2018-05-27T07:14:44.195Z,26.90
2018-05-27T07:17:13.080Z,27.00
2018-05-27T07:19:41.931Z,27.28
2018-05-27T07:22:10.787Z,27.48
2018-05-27T07:24:39.652Z,28.43
2018-05-27T07:27:08.520Z,29.73
2018-05-27T07:29:37.354Z,29.44
2018-05-27T07:32:06.196Z,29.11
2018-05-27T07:34:35.062Z,28.50
2018-05-27T07:37:03.879Z,28.69
2018-05-27T07:39:32.709Z,28.52
2018-05-27T07:42:01.573Z,28.40
2018-05-27T07:44:30.399Z,28.56
2018-05-27T07:46:59.260Z,28.44
2018-05-27T07:49:28.078Z,28.22
2018-05-27T07:51:56.913Z,28.98
2018-05-27T07:54:25.746Z,29.26
2018-05-27T07:56:54.571Z,30.22
2018-05-27T07:59:23.413Z,31.98
2018-05-27T08:01:52.232Z,33.43
2018-05-27T08:04:21.048Z,33.63
2018-05-27T08:06:49.887Z,35.03
2018-05-27T08:09:18.729Z,34.86
2018-05-27T08:11:47.566Z,34.60
2018-05-27T08:14:16.425Z,33.40
2018-05-27T08:16:45.336Z,34.07
2018-05-27T08:19:14.200Z,35.02
2018-05-27T08:21:43.127Z,35.57
2018-05-27T08:24:11.994Z,36.44
2018-05-27T08:26:40.821Z,36.89
2018-05-27T08:29:09.668Z,36.87
2018-05-27T08:31:38.511Z,37.25
2018-05-27T08:34:07.348Z,37.85
2018-05-27T08:36:36.188Z,38.17
2018-05-27T08:39:05.904Z,37.54
2018-05-27T08:41:34.815Z,38.33
2018-05-27T08:44:03.652Z,38.34
2018-05-27T08:46:32.568Z,38.19
2018-05-27T08:49:08.729Z,38.23
2018-05-27T08:51:37.860Z,38.03
2018-05-27T08:54:07.027Z,37.77
2018-05-27T08:56:40.889Z,38.34
2018-05-27T08:59:11.477Z,37.86
2018-05-27T09:01:40.992Z,37.72
2018-05-27T09:04:12.693Z,37.77
2018-05-27T09:06:45.325Z,37.80
2018-05-27T09:09:15.588Z,37.77
2018-05-27T09:11:47.167Z,38.21
2018-05-27T09:14:19.190Z,38.18
2018-05-27T09:16:50.735Z,39.06
2018-05-27T09:19:25.164Z,38.90
2018-05-27T09:21:54.429Z,38.27
2018-05-27T09:24:29.223Z,38.09
2018-05-27T09:26:58.263Z,37.54
2018-05-27T09:29:27.385Z,37.66
2018-05-27T09:31:56.570Z,38.23
2018-05-27T09:34:25.578Z,38.66
2018-05-27T09:36:54.791Z,39.01
2018-05-27T09:39:23.833Z,38.69
2018-05-27T09:41:56.118Z,38.68
2018-05-27T09:44:25.278Z,38.64
2018-05-27T09:46:55.919Z,38.31
2018-05-27T09:49:28.749Z,38.07
2018-05-27T09:51:58.434Z,38.62
2018-05-27T09:54:27.714Z,38.16
2018-05-27T09:56:58.822Z,38.26
2018-05-27T09:59:27.940Z,38.69
2018-05-27T10:01:57.134Z,38.71
2018-05-27T10:04:28.983Z,39.27
2018-05-27T10:07:01.003Z,39.44
2018-05-27T10:09:32.503Z,39.53
2018-05-27T10:12:01.667Z,39.11
2018-05-27T10:14:30.838Z,39.26
2018-05-27T10:17:00.279Z,39.02
2018-05-27T10:19:30.148Z,38.68
2018-05-27T10:21:59.341Z,38.57
2018-05-27T10:24:32.274Z,39.25
2018-05-27T10:27:03.890Z,38.49
2018-05-27T10:29:38.733Z,38.52
2018-05-27T10:32:18.720Z,38.81
2018-05-27T10:34:49.044Z,38.89
2018-05-27T10:37:18.338Z,39.68
2018-05-27T10:39:47.432Z,38.90
2018-05-27T10:42:18.678Z,38.47
2018-05-27T10:44:51.010Z,38.89
2018-05-27T10:47:20.421Z,37.98
2018-05-27T10:49:52.574Z,38.28
2018-05-27T10:52:21.686Z,38.20
2018-05-27T10:54:50.747Z,38.37
2018-05-27T10:57:20.265Z,38.63
2018-05-27T10:59:49.805Z,38.47
2018-05-27T11:02:18.894Z,37.74
2018-05-27T11:04:48.962Z,37.91
2018-05-27T11:07:18.080Z,38.22
2018-05-27T11:09:47.061Z,38.39
2018-05-27T11:12:21.367Z,38.56
2018-05-27T11:14:50.289Z,38.44
2018-05-27T11:17:19.451Z,37.94
2018-05-27T11:19:48.360Z,38.23
2018-05-27T11:22:17.663Z,37.47
2018-05-27T11:24:46.868Z,37.97
2018-05-27T11:27:17.241Z,36.82
2018-05-27T11:29:47.642Z,36.36
2018-05-27T11:32:20.690Z,35.87
2018-05-27T11:34:52.738Z,35.29
2018-05-27T11:37:21.991Z,34.96
2018-05-27T11:39:56.667Z,34.55
2018-05-27T11:42:25.918Z,34.27
2018-05-27T11:44:55.385Z,34.90
2018-05-27T11:47:24.695Z,35.39
2018-05-27T11:49:53.890Z,35.95
2018-05-27T11:52:23.127Z,36.12
2018-05-27T11:54:52.890Z,36.38
2018-05-27T11:57:22.371Z,35.53
2018-05-27T11:59:51.651Z,35.48
2018-05-27T12:02:21.816Z,35.34
2018-05-27T12:04:53.827Z,34.42
2018-05-27T12:07:22.991Z,33.94
2018-05-27T12:09:56.456Z,33.61
2018-05-27T12:12:25.863Z,33.43
2018-05-27T12:15:01.062Z,33.16
2018-05-27T12:17:32.567Z,32.87
2018-05-27T12:20:02.189Z,32.87
2018-05-27T12:22:31.348Z,32.76
2018-05-27T12:25:00.945Z,32.26
2018-05-27T12:27:30.044Z,32.25
2018-05-27T12:29:59.480Z,32.01
2018-05-27T12:32:28.603Z,31.76
2018-05-27T12:34:57.757Z,31.56
2018-05-27T12:37:27.175Z,31.17
2018-05-27T12:39:57.085Z,31.18
2018-05-27T12:42:26.284Z,30.98
2018-05-27T12:44:55.893Z,30.97
2018-05-27T12:47:25.072Z,30.88
2018-05-27T12:49:54.859Z,30.91
2018-05-27T12:52:24.571Z,30.75
2018-05-27T12:54:55.932Z,30.57
2018-05-27T12:57:27.617Z,30.51
2018-05-27T12:59:56.964Z,30.30
2018-05-27T13:02:27.130Z,30.25
2018-05-27T13:04:56.565Z,30.16
2018-05-27T13:07:25.660Z,30.08
2018-05-27T13:09:57.506Z,30.02
2018-05-27T13:12:26.599Z,30.26
2018-05-27T13:14:58.106Z,29.98
2018-05-27T13:17:28.400Z,29.72
2018-05-27T13:19:57.572Z,29.31
2018-05-27T13:22:27.289Z,28.88
2018-05-27T13:24:56.553Z,28.69
2018-05-27T13:27:27.379Z,29.00
2018-05-27T13:29:59.777Z,28.23
2018-05-27T13:32:29.019Z,28.11
2018-05-27T13:35:03.233Z,27.95
2018-05-27T13:37:32.714Z,27.90
2018-05-27T13:40:05.159Z,27.82
2018-05-27T13:42:37.487Z,27.71
2018-05-27T13:45:06.607Z,27.58
2018-05-27T13:47:38.388Z,27.62
2018-05-27T13:50:10.403Z,27.54
2018-05-27T13:52:39.593Z,27.36
2018-05-27T13:55:09.140Z,27.40
2018-05-27T13:57:38.237Z,27.40
2018-05-27T14:00:22.939Z,27.39
2018-05-27T14:02:49.661Z,27.45
2018-05-27T14:05:22.247Z,27.51
2018-05-27T14:07:51.503Z,27.37
2018-05-27T14:10:26.929Z,27.38
2018-05-27T14:12:55.255Z,27.21
2018-05-27T14:15:24.707Z,27.18
2018-05-27T14:18:04.463Z,27.25
2018-05-27T14:20:33.693Z,27.17
2018-05-27T14:23:03.991Z,27.28
2018-05-27T14:25:34.007Z,27.25
2018-05-27T14:28:02.978Z,27.13
2018-05-27T14:30:34.596Z,27.04
2018-05-27T14:33:03.748Z,26.96
2018-05-27T14:35:32.748Z,26.81
2018-05-27T14:38:04.481Z,26.91
2018-05-27T14:40:33.529Z,26.92
2018-05-27T14:43:02.949Z,26.74
2018-05-27T14:45:32.155Z,26.74
2018-05-27T14:48:01.955Z,26.73
2018-05-27T14:50:31.129Z,26.56
2018-05-27T14:52:59.942Z,26.51
2018-05-27T14:55:28.761Z,26.37
2018-05-27T14:57:57.705Z,26.31
2018-05-27T15:00:26.478Z,26.60
2018-05-27T15:02:55.324Z,26.30
2018-05-27T15:05:24.137Z,26.17
2018-05-27T15:07:52.990Z,25.90
2018-05-27T15:10:21.835Z,25.69
2018-05-27T15:12:50.680Z,25.57
2018-05-27T15:15:19.513Z,25.29
2018-05-27T15:17:48.368Z,25.05
2018-05-27T15:20:17.219Z,25.12
2018-05-27T15:22:46.139Z,25.24
2018-05-27T15:25:16.201Z,25.22
2018-05-27T15:27:45.037Z,25.42
2018-05-27T15:30:13.910Z,25.19
2018-05-27T15:32:42.744Z,25.08
2018-05-27T15:35:11.604Z,25.03
2018-05-27T15:37:40.450Z,24.86
2018-05-27T15:40:09.314Z,24.92
2018-05-27T15:42:38.176Z,24.89
2018-05-27T15:45:07.016Z,24.75
2018-05-27T15:47:38.884Z,24.58
2018-05-27T15:50:07.759Z,24.50
2018-05-27T15:52:36.633Z,24.45
2018-05-27T15:55:05.464Z,24.64
2018-05-27T15:57:34.336Z,24.36
2018-05-27T16:00:03.222Z,24.33
2018-05-27T16:02:32.104Z,24.38
2018-05-27T16:05:00.957Z,24.32
2018-05-27T16:07:29.791Z,24.45
2018-05-27T16:09:58.703Z,24.46
2018-05-27T16:12:27.604Z,24.49
2018-05-27T16:14:56.443Z,24.59
2018-05-27T16:17:25.314Z,24.76
2018-05-27T16:19:54.172Z,25.19
2018-05-27T16:22:23.004Z,25.13
2018-05-27T16:24:51.898Z,25.20
2018-05-27T16:27:20.761Z,25.63
2018-05-27T16:29:49.692Z,25.78
2018-05-27T16:32:18.715Z,25.58
2018-05-27T16:34:47.561Z,26.16
2018-05-27T16:37:16.375Z,26.05
2018-05-27T16:39:45.267Z,26.22
2018-05-27T16:42:14.093Z,26.38
2018-05-27T16:44:42.918Z,26.35
2018-05-27T16:47:11.755Z,26.29
2018-05-27T16:49:40.846Z,26.72
2018-05-27T16:52:09.773Z,26.61
2018-05-27T16:54:38.599Z,26.70
2018-05-27T16:57:07.485Z,26.52
2018-05-27T16:59:36.312Z,26.35
2018-05-27T17:02:05.141Z,26.42
2018-05-27T17:04:33.956Z,26.30
2018-05-27T17:07:02.793Z,26.24
2018-05-27T17:09:31.618Z,26.35
2018-05-27T17:12:00.446Z,26.03
2018-05-27T17:14:29.333Z,25.90
2018-05-27T17:16:58.183Z,25.80
2018-05-27T17:19:27.123Z,25.71
2018-05-27T17:21:55.959Z,25.53
2018-05-27T17:24:24.821Z,25.41
2018-05-27T17:26:53.667Z,25.29
2018-05-27T17:29:22.514Z,25.18
2018-05-27T17:31:51.350Z,25.15
2018-05-27T17:34:20.189Z,25.18
2018-05-27T17:36:49.040Z,25.08
2018-05-27T17:39:17.960Z,25.07
2018-05-27T17:41:46.760Z,24.93
2018-05-27T17:44:15.604Z,24.82
2018-05-27T17:46:44.474Z,24.78
2018-05-27T17:49:13.340Z,24.82
2018-05-27T17:51:42.180Z,24.76
2018-05-27T17:54:11.043Z,24.74
2018-05-27T17:56:39.891Z,24.64
2018-05-27T17:59:08.741Z,24.67
2018-05-27T18:01:37.587Z,24.64
2018-05-27T18:04:06.558Z,24.55
2018-05-27T18:06:35.370Z,24.53
2018-05-27T18:09:04.313Z,24.47
2018-05-27T18:11:33.177Z,24.42
2018-05-27T18:14:02.030Z,24.42
2018-05-27T18:16:30.881Z,24.69
2018-05-27T18:18:59.816Z,24.44
2018-05-27T18:21:28.655Z,24.42
2018-05-27T18:23:57.544Z,24.42
2018-05-27T18:26:26.367Z,24.37
2018-05-27T18:28:57.862Z,24.35
2018-05-27T18:31:26.672Z,24.26
2018-05-27T18:33:55.542Z,24.21
2018-05-27T18:36:24.375Z,24.07
2018-05-27T18:38:53.206Z,24.02
2018-05-27T18:41:22.052Z,24.00
2018-05-27T18:43:50.913Z,23.96
2018-05-27T18:46:19.731Z,23.95
2018-05-27T18:48:48.606Z,23.88
2018-05-27T18:51:17.473Z,23.82
2018-05-27T18:53:46.471Z,23.69
2018-05-27T18:56:15.325Z,23.63
2018-05-27T18:58:44.193Z,23.62
2018-05-27T19:01:13.043Z,23.56
2018-05-27T19:03:41.891Z,23.50
2018-05-27T19:06:10.750Z,23.48
2018-05-27T19:08:39.603Z,23.46
2018-05-27T19:11:08.466Z,23.42
2018-05-27T19:13:37.281Z,23.41
2018-05-27T19:16:06.142Z,23.37
2018-05-27T19:18:34.964Z,23.31
2018-05-27T19:21:03.786Z,23.57
2018-05-27T19:23:32.619Z,23.19
2018-05-27T19:26:01.504Z,23.19
2018-05-27T19:28:30.346Z,23.14
2018-05-27T19:30:59.233Z,23.14
2018-05-27T19:33:28.042Z,23.11
2018-05-27T19:35:56.890Z,23.07
2018-05-27T19:38:25.740Z,23.03
2018-05-27T19:40:54.599Z,23.00
2018-05-27T19:43:23.480Z,22.91
2018-05-27T19:45:52.259Z,23.20
2018-05-27T19:48:21.120Z,22.98
2018-05-27T19:50:49.963Z,22.91
2018-05-27T19:53:18.797Z,22.78
2018-05-27T19:55:47.632Z,22.73
2018-05-27T19:58:16.485Z,22.68
2018-05-27T20:00:45.340Z,22.81
2018-05-27T20:03:14.189Z,22.56
2018-05-27T20:05:42.999Z,22.40
2018-05-27T20:08:11.845Z,22.63
2018-05-27T20:10:40.711Z,22.28
2018-05-27T20:13:09.592Z,22.20
2018-05-27T20:15:38.420Z,22.06
2018-05-27T20:18:07.270Z,22.05
2018-05-27T20:20:36.125Z,21.95
2018-05-27T20:23:04.974Z,21.86
2018-05-27T20:25:33.808Z,22.07
2018-05-27T20:28:02.693Z,21.76
2018-05-27T20:30:31.541Z,21.70
2018-05-27T20:33:00.399Z,21.67
2018-05-27T20:35:29.233Z,21.71
2018-05-27T20:37:58.255Z,21.70
2018-05-27T20:40:27.085Z,21.68
2018-05-27T20:42:55.965Z,21.72
2018-05-27T20:45:24.794Z,21.68
2018-05-27T20:47:53.648Z,21.71
2018-05-27T20:50:22.451Z,21.66
2018-05-27T20:52:51.304Z,21.69
2018-05-27T20:55:20.159Z,21.68
2018-05-27T20:57:48.979Z,21.67
2018-05-27T21:00:17.814Z,21.64
2018-05-27T21:02:46.686Z,21.69
2018-05-27T21:05:15.550Z,21.63
2018-05-27T21:07:44.436Z,21.59
2018-05-27T21:10:13.244Z,21.52
2018-05-27T21:12:42.106Z,21.81
2018-05-27T21:15:10.975Z,21.61
2018-05-27T21:17:39.836Z,21.52
2018-05-27T21:20:08.691Z,21.48
2018-05-27T21:22:37.567Z,21.46
2018-05-27T21:25:06.412Z,21.48
2018-05-27T21:27:35.286Z,21.47
2018-05-27T21:30:04.160Z,21.52
2018-05-27T21:32:33.012Z,21.53
2018-05-27T21:35:01.859Z,21.56
2018-05-27T21:37:30.717Z,21.57
2018-05-27T21:39:59.520Z,21.66
2018-05-27T21:42:31.203Z,21.65
2018-05-27T21:45:00.168Z,21.94
2018-05-27T21:47:29.087Z,21.72
2018-05-27T21:49:57.941Z,22.03
2018-05-27T21:52:26.785Z,21.83
2018-05-27T21:54:55.641Z,21.81
2018-05-27T21:57:24.510Z,21.80
2018-05-27T21:59:53.353Z,21.77
2018-05-27T22:02:22.209Z,21.72
2018-05-27T22:04:51.093Z,21.69
2018-05-27T22:07:19.942Z,21.70
2018-05-27T22:09:48.787Z,21.72
2018-05-27T22:12:17.582Z,21.65
2018-05-27T22:14:46.421Z,21.58
2018-05-27T22:17:15.245Z,21.55
2018-05-27T22:19:44.117Z,21.52
2018-05-27T22:22:12.933Z,21.41
2018-05-27T22:24:41.792Z,21.33
2018-05-27T22:27:10.606Z,21.29
2018-05-27T22:29:39.490Z,21.26
2018-05-27T22:32:08.331Z,21.18
2018-05-27T22:34:37.172Z,21.11
2018-05-27T22:37:06.038Z,21.05
2018-05-27T22:39:34.852Z,20.95
2018-05-27T22:42:03.743Z,20.93
2018-05-27T22:44:32.576Z,20.91
2018-05-27T22:47:01.425Z,20.89
2018-05-27T22:49:30.269Z,21.19
2018-05-27T22:51:59.128Z,21.02
2018-05-27T22:54:27.978Z,20.93
2018-05-27T22:56:56.812Z,20.90
2018-05-27T22:59:25.641Z,20.85
2018-05-27T23:01:54.483Z,20.79
2018-05-27T23:04:23.317Z,20.80
2018-05-27T23:06:52.154Z,20.77
2018-05-27T23:09:21.018Z,20.74
2018-05-27T23:11:49.859Z,20.72
2018-05-27T23:14:18.702Z,20.78
2018-05-27T23:16:47.585Z,20.70
2018-05-27T23:19:16.434Z,20.66
2018-05-27T23:21:45.299Z,20.62
2018-05-27T23:24:14.155Z,20.64
2018-05-27T23:26:43.005Z,20.52
2018-05-27T23:29:11.858Z,20.54
2018-05-27T23:31:40.713Z,20.52
2018-05-27T23:34:09.549Z,20.53
2018-05-27T23:36:38.496Z,20.50
2018-05-27T23:39:07.330Z,20.53
2018-05-27T23:41:36.178Z,20.53
2018-05-27T23:44:05.036Z,20.60
2018-05-27T23:46:33.884Z,20.53
2018-05-27T23:49:02.778Z,20.51
2018-05-27T23:51:31.623Z,20.48
2018-05-27T23:54:00.454Z,20.46
2018-05-27T23:56:29.333Z,20.78
2018-05-27T23:58:58.179Z,20.57
